createdAt,value
2022-11-09T00:02:08.545Z,11.72
2022-11-09T00:05:15.437Z,11.72
2022-11-09T00:08:20.310Z,11.72
2022-11-09T00:11:27.434Z,11.70
2022-11-09T00:14:32.584Z,11.68
2022-11-09T00:17:37.966Z,11.65
2022-11-09T00:20:48.053Z,11.67
2022-11-09T00:23:55.280Z,11.69
2022-11-09T00:27:01.859Z,11.69
2022-11-09T00:30:10.513Z,11.67
2022-11-09T00:33:20.111Z,11.72
2022-11-09T00:36:27.661Z,11.64
2022-11-09T00:39:32.428Z,11.67
2022-11-09T00:42:38.990Z,11.65
2022-11-09T00:45:44.061Z,11.69
2022-11-09T00:48:49.473Z,11.67
2022-11-09T00:51:54.737Z,11.70
2022-11-09T00:54:59.893Z,11.68
2022-11-09T00:58:06.589Z,11.69
2022-11-09T01:01:16.331Z,11.72
2022-11-09T01:04:21.751Z,11.68
2022-11-09T01:07:27.553Z,11.69
2022-11-09T01:10:33.233Z,11.68
2022-11-09T01:13:40.784Z,11.67
2022-11-09T01:16:46.242Z,11.70
2022-11-09T01:19:51.321Z,11.70
2022-11-09T01:22:56.202Z,11.71
2022-11-09T01:26:02.004Z,11.73
2022-11-09T01:29:08.102Z,11.72
2022-11-09T01:32:19.297Z,11.68
2022-11-09T01:35:35.490Z,11.71
2022-11-09T01:39:00.302Z,11.64
2022-11-09T01:42:07.244Z,11.66
2022-11-09T01:45:29.981Z,11.60
2022-11-09T01:48:40.418Z,11.61
2022-11-09T01:51:52.349Z,11.66
2022-11-09T01:55:08.993Z,11.69
2022-11-09T01:58:18.215Z,11.72
2022-11-09T02:01:27.370Z,11.72
2022-11-09T02:04:37.813Z,11.68
2022-11-09T02:07:44.236Z,11.72
2022-11-09T02:11:12.149Z,11.76
2022-11-09T02:14:35.101Z,11.75
2022-11-09T02:17:43.695Z,11.74
2022-11-09T02:20:52.173Z,11.68
2022-11-09T02:24:00.504Z,11.68
2022-11-09T02:27:08.057Z,11.66
2022-11-09T02:30:16.973Z,11.66
2022-11-09T02:33:55.170Z,11.65
2022-11-09T02:37:11.101Z,11.64
2022-11-09T02:40:22.134Z,11.65
2022-11-09T02:43:27.261Z,11.59
2022-11-09T02:46:35.575Z,11.55
2022-11-09T02:49:41.344Z,11.60
2022-11-09T02:52:48.089Z,11.64
2022-11-09T02:55:53.852Z,11.68
2022-11-09T02:58:59.503Z,11.69
2022-11-09T03:02:04.845Z,11.64
2022-11-09T03:05:12.761Z,11.61
2022-11-09T03:08:37.769Z,11.62
2022-11-09T03:11:56.254Z,11.62
2022-11-09T03:15:21.280Z,11.55
2022-11-09T03:18:48.229Z,11.55
2022-11-09T03:22:25.300Z,11.58
2022-11-09T03:25:31.829Z,11.55
2022-11-09T03:28:38.133Z,11.49
2022-11-09T03:31:43.050Z,11.53
2022-11-09T03:34:49.243Z,11.51
2022-11-09T03:37:54.305Z,11.52
2022-11-09T03:41:02.668Z,11.43
2022-11-09T03:44:10.226Z,11.51
2022-11-09T03:47:15.080Z,11.46
2022-11-09T03:50:20.217Z,11.50
2022-11-09T03:53:25.002Z,11.49
2022-11-09T03:56:31.041Z,11.53
2022-11-09T03:59:36.342Z,11.56
2022-11-09T04:02:41.417Z,11.49
2022-11-09T04:05:46.078Z,11.50
2022-11-09T04:08:51.668Z,11.55
2022-11-09T04:11:58.453Z,11.55
2022-11-09T04:15:03.380Z,11.54
2022-11-09T04:18:14.341Z,11.52
2022-11-09T04:21:23.550Z,11.44
2022-11-09T04:24:29.020Z,11.49
2022-11-09T04:27:35.160Z,11.51
2022-11-09T04:30:40.437Z,11.51
2022-11-09T04:33:45.045Z,11.52
2022-11-09T04:36:50.316Z,11.51
2022-11-09T04:39:55.042Z,11.51
2022-11-09T04:43:02.945Z,11.50
2022-11-09T04:46:07.817Z,11.47
2022-11-09T04:49:13.046Z,11.53
2022-11-09T04:52:17.865Z,11.52
2022-11-09T04:55:22.975Z,11.51
2022-11-09T04:58:29.159Z,11.55
2022-11-09T05:01:34.582Z,11.55
2022-11-09T05:04:39.890Z,11.60
2022-11-09T05:07:44.620Z,11.61
2022-11-09T05:10:49.305Z,11.62
2022-11-09T05:13:55.633Z,11.63
2022-11-09T05:17:01.512Z,11.61
2022-11-09T05:20:08.020Z,11.63
2022-11-09T05:23:30.713Z,11.66
2022-11-09T05:26:37.311Z,11.62
2022-11-09T05:29:43.392Z,11.64
2022-11-09T05:32:48.684Z,11.68
2022-11-09T05:35:55.728Z,11.70
2022-11-09T05:39:00.965Z,11.67
2022-11-09T05:42:06.024Z,11.66
2022-11-09T05:48:41.834Z,11.71
2022-11-09T05:51:47.027Z,11.79
2022-11-09T05:55:00.486Z,11.76
2022-11-09T05:58:06.399Z,11.80
2022-11-09T06:01:15.958Z,11.82
2022-11-09T06:04:21.458Z,11.82
2022-11-09T06:07:26.360Z,11.78
2022-11-09T06:10:32.449Z,11.78
2022-11-09T06:13:37.756Z,11.81
2022-11-09T06:16:42.949Z,11.77
2022-11-09T06:19:47.793Z,11.72
2022-11-09T06:23:01.506Z,11.77
2022-11-09T06:26:11.680Z,11.78
2022-11-09T06:29:16.651Z,11.68
2022-11-09T06:32:21.496Z,11.67
2022-11-09T06:35:26.554Z,11.58
2022-11-09T06:38:31.436Z,11.55
2022-11-09T06:41:37.982Z,11.56
2022-11-09T06:44:42.673Z,11.54
2022-11-09T06:47:47.345Z,11.52
2022-11-09T06:50:52.179Z,11.52
2022-11-09T06:53:57.076Z,11.45
2022-11-09T06:57:03.145Z,11.43
2022-11-09T07:00:10.418Z,11.43
2022-11-09T07:03:19.935Z,11.40
2022-11-09T07:06:25.488Z,11.39
2022-11-09T07:09:30.442Z,11.39
2022-11-09T07:12:36.482Z,11.35
2022-11-09T07:15:41.621Z,11.38
2022-11-09T07:18:46.960Z,11.40
2022-11-09T07:21:51.726Z,11.28
2022-11-09T07:24:56.549Z,11.38
2022-11-09T07:28:07.555Z,11.38
2022-11-09T07:31:15.201Z,11.36
2022-11-09T07:34:20.350Z,11.42
2022-11-09T07:37:25.350Z,11.51
2022-11-09T07:40:30.219Z,11.52
2022-11-09T07:43:36.532Z,11.56
2022-11-09T07:46:41.977Z,11.54
2022-11-09T07:49:46.817Z,11.54
2022-11-09T07:52:51.643Z,11.56
2022-11-09T07:56:00.385Z,11.55
2022-11-09T07:59:06.927Z,11.52
2022-11-09T08:02:12.164Z,11.62
2022-11-09T08:05:18.048Z,11.73
2022-11-09T08:08:23.194Z,11.79
2022-11-09T08:11:28.704Z,11.78
2022-11-09T08:14:34.845Z,11.75
2022-11-09T08:17:39.892Z,11.75
2022-11-09T08:20:44.970Z,11.66
2022-11-09T08:23:50.705Z,11.64
2022-11-09T08:26:55.841Z,11.65
2022-11-09T08:30:02.067Z,11.63
2022-11-09T08:33:07.378Z,11.63
2022-11-09T08:36:15.396Z,11.65
2022-11-09T08:39:20.407Z,11.73
2022-11-09T08:42:25.027Z,11.80
2022-11-09T08:45:33.731Z,11.82
2022-11-09T08:48:38.627Z,11.81
2022-11-09T08:51:43.247Z,11.86
2022-11-09T08:54:47.851Z,11.77
2022-11-09T08:57:57.332Z,11.77
2022-11-09T09:01:10.967Z,11.84
2022-11-09T09:04:17.129Z,11.91
2022-11-09T09:07:21.891Z,11.98
2022-11-09T09:10:27.263Z,11.97
2022-11-09T09:13:32.062Z,11.97
2022-11-09T09:16:38.442Z,12.01
2022-11-09T09:19:48.789Z,12.07
2022-11-09T09:22:54.790Z,12.13
2022-11-09T09:25:59.840Z,11.97
2022-11-09T09:29:04.555Z,11.98
2022-11-09T09:32:10.693Z,12.04
2022-11-09T09:35:15.993Z,12.02
2022-11-09T09:38:21.092Z,11.97
2022-11-09T09:41:32.545Z,12.00
2022-11-09T09:44:44.280Z,11.97
2022-11-09T09:47:56.321Z,12.01
2022-11-09T09:51:05.690Z,12.00
2022-11-09T09:54:17.657Z,12.13
2022-11-09T09:57:23.949Z,12.24
2022-11-09T10:00:29.300Z,12.23
2022-11-09T10:03:35.480Z,12.26
2022-11-09T10:06:59.278Z,12.31
2022-11-09T10:10:35.978Z,12.30
2022-11-09T10:14:02.571Z,12.36
2022-11-09T10:17:15.759Z,12.44
2022-11-09T10:20:52.826Z,12.45
2022-11-09T10:24:14.008Z,12.46
2022-11-09T10:27:28.682Z,12.45
2022-11-09T10:30:33.589Z,12.49
2022-11-09T10:33:38.585Z,12.51
2022-11-09T10:36:49.023Z,12.50
2022-11-09T10:39:59.389Z,12.57
2022-11-09T10:43:22.812Z,12.53
2022-11-09T10:47:08.122Z,12.57
2022-11-09T10:50:35.444Z,12.60
2022-11-09T10:54:17.520Z,12.72
2022-11-09T10:57:56.155Z,12.79
2022-11-09T11:01:22.867Z,12.79
2022-11-09T11:04:46.729Z,12.83
2022-11-09T11:08:31.496Z,12.77
2022-11-09T11:12:16.321Z,12.79
2022-11-09T11:15:41.821Z,12.79
2022-11-09T11:19:06.173Z,12.76
2022-11-09T11:22:29.736Z,12.80
2022-11-09T11:26:27.934Z,12.83
2022-11-09T11:30:03.109Z,12.92
2022-11-09T11:33:26.861Z,12.91
2022-11-09T11:37:03.532Z,12.91
2022-11-09T11:40:31.985Z,12.92
2022-11-09T11:44:00.076Z,12.91
2022-11-09T11:47:30.000Z,12.90
2022-11-09T11:50:58.799Z,12.92
2022-11-09T11:54:28.230Z,12.91
2022-11-09T11:58:20.096Z,12.91
2022-11-09T12:02:04.589Z,12.89
2022-11-09T12:06:00.107Z,12.94
2022-11-09T12:09:50.453Z,12.91
2022-11-09T12:13:32.720Z,12.87
2022-11-09T12:17:07.152Z,12.88
2022-11-09T12:20:37.255Z,12.80
2022-11-09T12:24:17.194Z,12.80
2022-11-09T12:28:03.901Z,12.76
2022-11-09T12:31:37.104Z,12.74
2022-11-09T12:35:17.795Z,12.68
2022-11-09T12:38:55.158Z,12.64
2022-11-09T12:42:24.214Z,12.64
2022-11-09T12:45:48.302Z,12.64
2022-11-09T12:49:32.145Z,12.68
2022-11-09T12:52:55.955Z,12.65
2022-11-09T12:56:24.106Z,12.70
2022-11-09T12:59:50.374Z,12.73
2022-11-09T13:03:27.160Z,12.70
2022-11-09T13:07:44.091Z,12.70
2022-11-09T13:11:18.962Z,12.66
2022-11-09T13:14:43.818Z,12.59
2022-11-09T13:18:25.868Z,12.52
2022-11-09T13:21:49.006Z,12.55
2022-11-09T13:25:51.821Z,12.51
2022-11-09T13:29:27.845Z,12.48
2022-11-09T13:33:25.009Z,12.51
2022-11-09T13:37:49.298Z,12.46
2022-11-09T13:41:42.827Z,12.46
2022-11-09T13:45:30.326Z,12.46
2022-11-09T13:48:55.458Z,12.37
2022-11-09T13:52:48.915Z,12.44
2022-11-09T13:56:24.771Z,12.31
2022-11-09T13:59:51.732Z,12.31
2022-11-09T14:03:23.802Z,12.23
2022-11-09T14:06:48.283Z,12.24
2022-11-09T14:10:29.608Z,12.23
2022-11-09T14:14:12.749Z,12.25
2022-11-09T14:17:44.266Z,12.21
2022-11-09T14:21:32.493Z,12.19
2022-11-09T14:24:57.646Z,12.14
2022-11-09T14:28:23.802Z,12.17
2022-11-09T14:31:47.919Z,12.15
2022-11-09T14:35:27.225Z,12.11
2022-11-09T14:38:50.864Z,12.05
2022-11-09T14:42:21.343Z,11.92
2022-11-09T14:45:50.596Z,11.89
2022-11-09T14:49:14.609Z,11.94
2022-11-09T14:52:38.308Z,11.92
2022-11-09T14:56:04.713Z,11.86
2022-11-09T14:59:34.159Z,11.80
2022-11-09T15:02:57.833Z,11.75
2022-11-09T15:06:21.910Z,11.77
2022-11-09T15:09:48.384Z,11.75
2022-11-09T15:13:13.485Z,11.68
2022-11-09T15:16:38.621Z,11.69
2022-11-09T15:20:06.456Z,11.63
2022-11-09T15:23:40.051Z,11.62
2022-11-09T15:27:03.393Z,11.58
2022-11-09T15:30:36.058Z,11.49
2022-11-09T15:34:01.112Z,11.52
2022-11-09T15:37:29.410Z,11.50
2022-11-09T15:40:52.880Z,11.36
2022-11-09T15:44:17.169Z,11.32
2022-11-09T15:47:40.740Z,11.32
2022-11-09T15:51:05.717Z,11.36
2022-11-09T15:54:29.403Z,11.30
2022-11-09T15:57:53.560Z,11.19
2022-11-09T16:01:17.732Z,11.30
2022-11-09T16:04:41.916Z,11.27
2022-11-09T16:08:08.490Z,11.22
2022-11-09T16:11:31.612Z,11.18
2022-11-09T16:14:54.529Z,11.23
2022-11-09T16:18:24.544Z,11.22
2022-11-09T16:21:49.411Z,11.17
2022-11-09T16:25:14.942Z,11.12
2022-11-09T16:28:40.176Z,11.12
2022-11-09T16:32:03.438Z,11.04
2022-11-09T16:35:28.583Z,11.08
2022-11-09T16:38:55.087Z,11.05
2022-11-09T16:42:20.608Z,11.14
2022-11-09T16:45:47.789Z,11.07
2022-11-09T16:49:11.227Z,11.09
2022-11-09T16:52:34.506Z,11.06
2022-11-09T16:55:58.121Z,10.99
2022-11-09T16:59:24.410Z,10.95
2022-11-09T17:02:48.816Z,10.99
2022-11-09T17:06:13.732Z,10.93
2022-11-09T17:09:37.285Z,10.90
2022-11-09T17:13:00.559Z,10.91
2022-11-09T17:16:26.012Z,10.85
2022-11-09T17:19:49.844Z,10.87
2022-11-09T17:23:18.126Z,10.92
2022-11-09T17:26:41.854Z,10.89
2022-11-09T17:30:07.850Z,10.79
2022-11-09T17:33:32.630Z,10.83
2022-11-09T17:37:03.772Z,10.82
2022-11-09T17:40:28.430Z,10.81
2022-11-09T17:43:52.433Z,10.88
2022-11-09T17:47:15.657Z,10.89
2022-11-09T17:50:40.917Z,10.93
2022-11-09T17:54:04.640Z,10.96
2022-11-09T17:57:28.143Z,10.99
2022-11-09T18:00:51.991Z,11.02
2022-11-09T18:04:15.942Z,11.00
2022-11-09T18:07:40.467Z,10.95
2022-11-09T18:11:04.247Z,10.92
2022-11-09T18:14:27.345Z,10.96
2022-11-09T18:17:50.926Z,10.87
2022-11-09T18:21:17.167Z,10.88
2022-11-09T18:24:41.790Z,10.87
2022-11-09T18:28:05.576Z,10.87
2022-11-09T18:31:29.458Z,10.88
2022-11-09T18:34:52.798Z,10.84
2022-11-09T18:38:19.915Z,10.86
2022-11-09T18:41:44.992Z,10.86
2022-11-09T18:45:11.686Z,10.88
2022-11-09T18:48:35.226Z,10.77
2022-11-09T18:51:59.160Z,10.81
2022-11-09T18:55:22.685Z,10.76
2022-11-09T18:58:47.811Z,10.84
2022-11-09T19:02:14.610Z,10.80
2022-11-09T19:05:41.005Z,10.79
2022-11-09T19:09:21.801Z,10.77
2022-11-09T19:12:45.310Z,10.77
2022-11-09T19:16:13.101Z,10.76
2022-11-09T19:19:36.406Z,10.73
2022-11-09T19:22:59.888Z,10.74
2022-11-09T19:26:23.923Z,10.70
2022-11-09T19:29:46.951Z,10.70
2022-11-09T19:33:19.737Z,10.66
2022-11-09T19:36:45.736Z,10.70
2022-11-09T19:40:10.898Z,10.70
2022-11-09T19:43:34.251Z,10.71
2022-11-09T19:46:58.356Z,10.70
2022-11-09T19:50:22.776Z,10.76
2022-11-09T19:53:51.121Z,10.77
2022-11-09T19:57:14.182Z,10.77
2022-11-09T20:00:37.373Z,10.72
2022-11-09T20:04:06.405Z,10.73
2022-11-09T20:07:35.342Z,10.78
2022-11-09T20:11:05.513Z,10.73
2022-11-09T20:14:29.569Z,10.78
2022-11-09T20:17:52.671Z,10.71
2022-11-09T20:21:16.231Z,10.70
2022-11-09T20:24:41.296Z,10.72
2022-11-09T20:28:04.903Z,10.68
2022-11-09T20:31:27.945Z,10.67
2022-11-09T20:34:51.674Z,10.65
2022-11-09T20:38:14.938Z,10.72
2022-11-09T20:41:39.874Z,10.72
2022-11-09T20:45:03.706Z,10.69
2022-11-09T20:48:52.091Z,10.72
2022-11-09T20:52:12.213Z,10.73
2022-11-09T20:55:38.426Z,10.73
2022-11-09T20:59:03.037Z,10.68
2022-11-09T21:02:26.526Z,10.70
2022-11-09T21:05:52.497Z,10.69
2022-11-09T21:09:19.394Z,10.70
2022-11-09T21:12:42.745Z,10.78
2022-11-09T21:16:08.958Z,10.75
2022-11-09T21:19:32.372Z,10.72
2022-11-09T21:23:13.593Z,10.73
2022-11-09T21:26:54.824Z,10.71
2022-11-09T21:30:19.465Z,10.69
2022-11-09T21:33:44.212Z,10.63
2022-11-09T21:37:09.009Z,10.66
2022-11-09T21:40:32.225Z,10.64
2022-11-09T21:43:55.851Z,10.55
2022-11-09T21:47:19.403Z,10.59
2022-11-09T21:50:43.873Z,10.55
2022-11-09T21:54:09.587Z,10.57
2022-11-09T21:57:33.182Z,10.51
2022-11-09T22:00:58.922Z,10.50
2022-11-09T22:04:22.163Z,10.51
2022-11-09T22:07:47.562Z,10.43
2022-11-09T22:11:15.678Z,10.37
2022-11-09T22:14:56.928Z,10.38
2022-11-09T22:18:35.959Z,10.38
2022-11-09T22:21:59.152Z,10.35
2022-11-09T22:25:23.769Z,10.32
2022-11-09T22:28:47.760Z,10.38
2022-11-09T22:32:13.111Z,10.32
2022-11-09T22:35:36.596Z,10.27
2022-11-09T22:38:59.913Z,10.35
2022-11-09T22:42:24.595Z,10.37
2022-11-09T22:45:48.511Z,10.35
2022-11-09T22:49:12.061Z,10.31
2022-11-09T22:52:35.456Z,10.21
2022-11-09T22:56:01.059Z,10.24
2022-11-09T22:59:25.959Z,10.19
2022-11-09T23:02:49.212Z,10.20
2022-11-09T23:06:17.514Z,10.20
2022-11-09T23:09:40.907Z,10.23
2022-11-09T23:13:05.304Z,10.23
2022-11-09T23:16:30.457Z,10.18
2022-11-09T23:19:53.052Z,10.17
2022-11-09T23:23:16.509Z,10.21
2022-11-09T23:26:39.953Z,10.21
2022-11-09T23:30:04.297Z,10.18
2022-11-09T23:33:29.556Z,10.19
2022-11-09T23:36:52.476Z,10.17
2022-11-09T23:40:17.148Z,10.10
2022-11-09T23:43:40.093Z,10.12
2022-11-09T23:47:03.966Z,10.15
2022-11-09T23:50:28.939Z,10.21
2022-11-09T23:53:52.645Z,10.08
2022-11-09T23:57:16.120Z,10.11
